sensor_id;sensor_type;location;lat;lon;timestamp;temperature;humidity
12872;DHT22;6504;53.766;9.626;2023-04-01T00:00:35;10.40;99.90
12872;DHT22;6504;53.766;9.626;2023-04-01T00:03:03;10.40;99.90
12872;DHT22;6504;53.766;9.626;2023-04-01T00:05:31;10.40;99.90
12872;DHT22;6504;53.766;9.626;2023-04-01T00:08:00;10.40;99.90
12872;DHT22;6504;53.766;9.626;2023-04-01T00:10:29;10.40;99.90
12872;DHT22;6504;53.766;9.626;2023-04-01T00:13:00;10.40;99.90
12872;DHT22;6504;53.766;9.626;2023-04-01T00:15:28;10.40;99.90
12872;DHT22;6504;53.766;9.626;2023-04-01T00:17:57;10.40;99.90
12872;DHT22;6504;53.766;9.626;2023-04-01T00:20:25;10.40;99.90
12872;DHT22;6504;53.766;9.626;2023-04-01T00:22:54;10.40;99.90
12872;DHT22;6504;53.766;9.626;2023-04-01T00:25:22;10.40;99.90
12872;DHT22;6504;53.766;9.626;2023-04-01T00:27:52;10.40;99.90
12872;DHT22;6504;53.766;9.626;2023-04-01T00:30:20;10.40;99.90
12872;DHT22;6504;53.766;9.626;2023-04-01T00:32:51;10.40;99.90
12872;DHT22;6504;53.766;9.626;2023-04-01T00:35:19;10.40;99.90
12872;DHT22;6504;53.766;9.626;2023-04-01T00:37:49;10.40;99.90
12872;DHT22;6504;53.766;9.626;2023-04-01T00:40:25;10.40;99.90
12872;DHT22;6504;53.766;9.626;2023-04-01T00:42:54;10.30;99.90
12872;DHT22;6504;53.766;9.626;2023-04-01T00:45:33;10.30;99.90
12872;DHT22;6504;53.766;9.626;2023-04-01T00:48:05;10.30;99.90
12872;DHT22;6504;53.766;9.626;2023-04-01T00:50:37;10.30;99.90
12872;DHT22;6504;53.766;9.626;2023-04-01T00:53:07;10.30;99.90
12872;DHT22;6504;53.766;9.626;2023-04-01T00:55:37;10.30;99.90
12872;DHT22;6504;53.766;9.626;2023-04-01T00:58:14;10.40;99.90
12872;DHT22;6504;53.766;9.626;2023-04-01T01:00:42;10.30;99.90
12872;DHT22;6504;53.766;9.626;2023-04-01T01:03:11;10.40;99.90
12872;DHT22;6504;53.766;9.626;2023-04-01T01:09:04;10.40;99.90
12872;DHT22;6504;53.766;9.626;2023-04-01T01:11:38;10.30;99.90
12872;DHT22;6504;53.766;9.626;2023-04-01T01:14:19;10.40;99.90
12872;DHT22;6504;53.766;9.626;2023-04-01T01:16:55;10.40;99.90
12872;DHT22;6504;53.766;9.626;2023-04-01T01:19:47;10.30;99.90
12872;DHT22;6504;53.766;9.626;2023-04-01T01:22:34;10.30;99.90
12872;DHT22;6504;53.766;9.626;2023-04-01T01:25:32;10.30;99.90
12872;DHT22;6504;53.766;9.626;2023-04-01T01:28:16;10.30;99.90
12872;DHT22;6504;53.766;9.626;2023-04-01T01:30:51;10.30;99.90
12872;DHT22;6504;53.766;9.626;2023-04-01T01:33:52;10.30;99.90
12872;DHT22;6504;53.766;9.626;2023-04-01T01:36:30;10.30;99.90
12872;DHT22;6504;53.766;9.626;2023-04-01T01:39:02;10.30;99.90
12872;DHT22;6504;53.766;9.626;2023-04-01T01:41:32;10.30;99.90
12872;DHT22;6504;53.766;9.626;2023-04-01T01:44:03;10.30;99.90
12872;DHT22;6504;53.766;9.626;2023-04-01T01:46:31;10.30;99.90
12872;DHT22;6504;53.766;9.626;2023-04-01T01:49:02;10.20;99.90
12872;DHT22;6504;53.766;9.626;2023-04-01T01:51:32;10.20;99.90
12872;DHT22;6504;53.766;9.626;2023-04-01T01:54:01;10.20;99.90
12872;DHT22;6504;53.766;9.626;2023-04-01T01:56:29;10.20;99.90
12872;DHT22;6504;53.766;9.626;2023-04-01T01:59:01;10.20;99.90
12872;DHT22;6504;53.766;9.626;2023-04-01T02:01:32;10.20;99.90
12872;DHT22;6504;53.766;9.626;2023-04-01T02:04:02;10.20;99.90
12872;DHT22;6504;53.766;9.626;2023-04-01T02:06:35;10.20;99.90
12872;DHT22;6504;53.766;9.626;2023-04-01T02:09:06;10.20;99.90
12872;DHT22;6504;53.766;9.626;2023-04-01T02:11:39;10.10;99.90
12872;DHT22;6504;53.766;9.626;2023-04-01T02:14:11;10.20;99.90
12872;DHT22;6504;53.766;9.626;2023-04-01T02:16:45;10.20;99.90
12872;DHT22;6504;53.766;9.626;2023-04-01T02:19:18;10.10;99.90
12872;DHT22;6504;53.766;9.626;2023-04-01T02:21:52;10.10;99.90
12872;DHT22;6504;53.766;9.626;2023-04-01T02:24:23;10.10;99.90
12872;DHT22;6504;53.766;9.626;2023-04-01T02:26:53;10.10;99.90
12872;DHT22;6504;53.766;9.626;2023-04-01T02:29:23;10.10;99.90
12872;DHT22;6504;53.766;9.626;2023-04-01T02:31:53;10.10;99.90
12872;DHT22;6504;53.766;9.626;2023-04-01T02:34:23;10.10;99.90
12872;DHT22;6504;53.766;9.626;2023-04-01T02:36:53;10.10;99.90
12872;DHT22;6504;53.766;9.626;2023-04-01T02:39:22;10.10;99.90
12872;DHT22;6504;53.766;9.626;2023-04-01T02:41:52;10.10;99.90
12872;DHT22;6504;53.766;9.626;2023-04-01T02:44:20;10.10;99.90
12872;DHT22;6504;53.766;9.626;2023-04-01T02:46:48;10.10;99.90
12872;DHT22;6504;53.766;9.626;2023-04-01T02:49:16;10.10;99.90
12872;DHT22;6504;53.766;9.626;2023-04-01T02:51:44;10.10;99.90
12872;DHT22;6504;53.766;9.626;2023-04-01T02:54:14;10.10;99.90
12872;DHT22;6504;53.766;9.626;2023-04-01T02:56:42;10.10;99.90
12872;DHT22;6504;53.766;9.626;2023-04-01T02:59:10;10.10;99.90
12872;DHT22;6504;53.766;9.626;2023-04-01T03:01:38;10.00;99.90
12872;DHT22;6504;53.766;9.626;2023-04-01T03:04:06;10.00;99.90
12872;DHT22;6504;53.766;9.626;2023-04-01T03:06:34;10.10;99.90
12872;DHT22;6504;53.766;9.626;2023-04-01T03:09:03;10.00;99.90
12872;DHT22;6504;53.766;9.626;2023-04-01T03:11:32;10.10;99.90
12872;DHT22;6504;53.766;9.626;2023-04-01T03:14:00;10.00;99.90
12872;DHT22;6504;53.766;9.626;2023-04-01T03:16:28;10.10;99.90
12872;DHT22;6504;53.766;9.626;2023-04-01T03:18:56;10.00;99.90
12872;DHT22;6504;53.766;9.626;2023-04-01T03:21:26;10.00;99.90
12872;DHT22;6504;53.766;9.626;2023-04-01T03:23:54;10.00;99.90
12872;DHT22;6504;53.766;9.626;2023-04-01T03:26:22;10.10;99.90
12872;DHT22;6504;53.766;9.626;2023-04-01T03:28:51;10.00;99.90
12872;DHT22;6504;53.766;9.626;2023-04-01T03:31:20;10.00;99.90
12872;DHT22;6504;53.766;9.626;2023-04-01T03:33:49;10.00;99.90
12872;DHT22;6504;53.766;9.626;2023-04-01T03:36:18;10.00;99.90
12872;DHT22;6504;53.766;9.626;2023-04-01T03:38:46;10.00;99.90
12872;DHT22;6504;53.766;9.626;2023-04-01T03:41:15;9.90;99.90
12872;DHT22;6504;53.766;9.626;2023-04-01T03:43:44;10.00;99.90
12872;DHT22;6504;53.766;9.626;2023-04-01T03:46:18;10.00;99.90
12872;DHT22;6504;53.766;9.626;2023-04-01T03:48:47;9.90;99.90
12872;DHT22;6504;53.766;9.626;2023-04-01T03:51:15;9.90;99.90
12872;DHT22;6504;53.766;9.626;2023-04-01T03:53:43;9.90;99.90
12872;DHT22;6504;53.766;9.626;2023-04-01T03:56:11;9.80;99.90
12872;DHT22;6504;53.766;9.626;2023-04-01T03:58:39;9.50;99.90
12872;DHT22;6504;53.766;9.626;2023-04-01T04:01:15;9.40;99.90
12872;DHT22;6504;53.766;9.626;2023-04-01T04:03:45;9.30;99.90
12872;DHT22;6504;53.766;9.626;2023-04-01T04:06:14;9.20;99.90
12872;DHT22;6504;53.766;9.626;2023-04-01T04:08:42;9.10;99.90
12872;DHT22;6504;53.766;9.626;2023-04-01T04:11:11;8.90;99.90
12872;DHT22;6504;53.766;9.626;2023-04-01T04:13:39;8.80;99.90
12872;DHT22;6504;53.766;9.626;2023-04-01T04:16:07;8.70;99.90
12872;DHT22;6504;53.766;9.626;2023-04-01T04:18:36;8.60;99.90
12872;DHT22;6504;53.766;9.626;2023-04-01T04:21:06;8.40;99.90
12872;DHT22;6504;53.766;9.626;2023-04-01T04:23:34;8.50;99.90
12872;DHT22;6504;53.766;9.626;2023-04-01T04:26:05;8.40;99.90
12872;DHT22;6504;53.766;9.626;2023-04-01T04:28:34;8.40;99.90
12872;DHT22;6504;53.766;9.626;2023-04-01T04:31:03;8.30;99.90
12872;DHT22;6504;53.766;9.626;2023-04-01T04:33:32;8.30;99.90
12872;DHT22;6504;53.766;9.626;2023-04-01T04:36:00;8.20;99.90
12872;DHT22;6504;53.766;9.626;2023-04-01T04:38:30;8.10;99.90
12872;DHT22;6504;53.766;9.626;2023-04-01T04:40:58;8.10;99.90
12872;DHT22;6504;53.766;9.626;2023-04-01T04:43:26;8.10;99.90
12872;DHT22;6504;53.766;9.626;2023-04-01T04:45:54;8.10;99.90
12872;DHT22;6504;53.766;9.626;2023-04-01T04:48:22;8.10;99.90
12872;DHT22;6504;53.766;9.626;2023-04-01T04:50:50;8.00;99.90
12872;DHT22;6504;53.766;9.626;2023-04-01T04:53:19;7.90;99.90
12872;DHT22;6504;53.766;9.626;2023-04-01T04:55:49;7.90;99.90
12872;DHT22;6504;53.766;9.626;2023-04-01T04:58:18;7.80;99.90
12872;DHT22;6504;53.766;9.626;2023-04-01T05:00:46;7.80;99.90
12872;DHT22;6504;53.766;9.626;2023-04-01T05:03:15;7.80;99.90
12872;DHT22;6504;53.766;9.626;2023-04-01T05:05:49;7.70;99.90
12872;DHT22;6504;53.766;9.626;2023-04-01T05:08:17;7.70;99.90
12872;DHT22;6504;53.766;9.626;2023-04-01T05:10:45;7.70;99.90
12872;DHT22;6504;53.766;9.626;2023-04-01T05:13:15;7.70;99.90
12872;DHT22;6504;53.766;9.626;2023-04-01T05:15:43;7.60;99.90
12872;DHT22;6504;53.766;9.626;2023-04-01T05:18:11;7.60;99.90
12872;DHT22;6504;53.766;9.626;2023-04-01T05:20:39;7.60;99.90
12872;DHT22;6504;53.766;9.626;2023-04-01T05:23:07;7.50;99.90
12872;DHT22;6504;53.766;9.626;2023-04-01T05:25:37;7.50;99.90
12872;DHT22;6504;53.766;9.626;2023-04-01T05:28:05;7.50;99.90
12872;DHT22;6504;53.766;9.626;2023-04-01T05:30:35;7.40;99.90
12872;DHT22;6504;53.766;9.626;2023-04-01T05:33:03;7.40;99.90
12872;DHT22;6504;53.766;9.626;2023-04-01T05:35:31;7.30;99.90
12872;DHT22;6504;53.766;9.626;2023-04-01T05:37:59;7.30;99.90
12872;DHT22;6504;53.766;9.626;2023-04-01T05:40:27;7.30;99.90
12872;DHT22;6504;53.766;9.626;2023-04-01T05:42:56;7.20;99.90
12872;DHT22;6504;53.766;9.626;2023-04-01T05:45:24;7.10;99.90
12872;DHT22;6504;53.766;9.626;2023-04-01T05:47:53;7.10;99.90
12872;DHT22;6504;53.766;9.626;2023-04-01T05:50:22;7.10;99.90
12872;DHT22;6504;53.766;9.626;2023-04-01T05:52:50;7.10;99.90
12872;DHT22;6504;53.766;9.626;2023-04-01T05:55:18;7.10;99.90
12872;DHT22;6504;53.766;9.626;2023-04-01T05:57:46;7.10;99.90
12872;DHT22;6504;53.766;9.626;2023-04-01T06:00:15;7.10;99.90
12872;DHT22;6504;53.766;9.626;2023-04-01T06:02:44;7.10;99.90
12872;DHT22;6504;53.766;9.626;2023-04-01T06:05:17;7.00;99.90
12872;DHT22;6504;53.766;9.626;2023-04-01T06:07:46;6.90;99.90
12872;DHT22;6504;53.766;9.626;2023-04-01T06:10:15;7.00;99.90
12872;DHT22;6504;53.766;9.626;2023-04-01T06:13:00;7.00;99.90
12872;DHT22;6504;53.766;9.626;2023-04-01T06:15:36;6.90;99.90
12872;DHT22;6504;53.766;9.626;2023-04-01T06:18:30;6.90;99.90
12872;DHT22;6504;53.766;9.626;2023-04-01T06:21:09;6.90;99.90
12872;DHT22;6504;53.766;9.626;2023-04-01T06:23:53;6.90;99.90
12872;DHT22;6504;53.766;9.626;2023-04-01T06:26:30;6.90;99.90
12872;DHT22;6504;53.766;9.626;2023-04-01T06:29:41;6.90;99.90
12872;DHT22;6504;53.766;9.626;2023-04-01T06:32:26;6.90;99.90
12872;DHT22;6504;53.766;9.626;2023-04-01T06:35:17;6.90;99.90
12872;DHT22;6504;53.766;9.626;2023-04-01T06:41:00;6.80;99.90
12872;DHT22;6504;53.766;9.626;2023-04-01T06:43:39;6.80;99.90
12872;DHT22;6504;53.766;9.626;2023-04-01T06:46:12;6.70;99.90
12872;DHT22;6504;53.766;9.626;2023-04-01T06:49:02;6.70;99.90
12872;DHT22;6504;53.766;9.626;2023-04-01T06:51:39;6.80;99.90
12872;DHT22;6504;53.766;9.626;2023-04-01T06:54:17;6.70;99.90
12872;DHT22;6504;53.766;9.626;2023-04-01T06:56:49;6.80;99.90
12872;DHT22;6504;53.766;9.626;2023-04-01T06:59:24;6.80;99.90
12872;DHT22;6504;53.766;9.626;2023-04-01T07:01:55;6.80;99.90
12872;DHT22;6504;53.766;9.626;2023-04-01T07:04:27;6.70;99.90
12872;DHT22;6504;53.766;9.626;2023-04-01T07:06:59;6.70;99.90
12872;DHT22;6504;53.766;9.626;2023-04-01T07:09:32;6.70;99.90
12872;DHT22;6504;53.766;9.626;2023-04-01T07:12:06;6.60;99.90
12872;DHT22;6504;53.766;9.626;2023-04-01T07:14:40;6.60;99.90
12872;DHT22;6504;53.766;9.626;2023-04-01T07:17:13;6.60;99.90
12872;DHT22;6504;53.766;9.626;2023-04-01T07:19:45;6.60;99.90
12872;DHT22;6504;53.766;9.626;2023-04-01T07:22:23;6.70;99.90
12872;DHT22;6504;53.766;9.626;2023-04-01T07:24:54;6.60;99.90
12872;DHT22;6504;53.766;9.626;2023-04-01T07:27:24;6.60;99.90
12872;DHT22;6504;53.766;9.626;2023-04-01T07:29:55;6.60;99.90
12872;DHT22;6504;53.766;9.626;2023-04-01T07:32:31;6.60;99.90
12872;DHT22;6504;53.766;9.626;2023-04-01T07:35:12;6.60;99.90
12872;DHT22;6504;53.766;9.626;2023-04-01T07:37:47;6.60;99.90
12872;DHT22;6504;53.766;9.626;2023-04-01T07:40:26;6.60;99.90
12872;DHT22;6504;53.766;9.626;2023-04-01T07:43:09;6.60;99.90
12872;DHT22;6504;53.766;9.626;2023-04-01T07:45:48;6.70;99.90
12872;DHT22;6504;53.766;9.626;2023-04-01T07:48:26;6.60;99.90
12872;DHT22;6504;53.766;9.626;2023-04-01T07:51:02;6.60;99.90
12872;DHT22;6504;53.766;9.626;2023-04-01T07:53:36;6.60;99.90
12872;DHT22;6504;53.766;9.626;2023-04-01T07:56:09;6.60;99.90
12872;DHT22;6504;53.766;9.626;2023-04-01T07:58:48;6.60;99.90
12872;DHT22;6504;53.766;9.626;2023-04-01T08:01:23;6.60;99.90
12872;DHT22;6504;53.766;9.626;2023-04-01T08:06:52;6.60;99.90
12872;DHT22;6504;53.766;9.626;2023-04-01T08:09:28;6.60;99.90
12872;DHT22;6504;53.766;9.626;2023-04-01T08:12:13;6.60;99.90
12872;DHT22;6504;53.766;9.626;2023-04-01T08:14:53;6.60;99.90
12872;DHT22;6504;53.766;9.626;2023-04-01T08:17:30;6.60;99.90
12872;DHT22;6504;53.766;9.626;2023-04-01T08:20:10;6.50;99.90
12872;DHT22;6504;53.766;9.626;2023-04-01T08:22:42;6.50;99.90
12872;DHT22;6504;53.766;9.626;2023-04-01T08:25:20;6.50;99.90
12872;DHT22;6504;53.766;9.626;2023-04-01T08:27:55;6.50;99.90
12872;DHT22;6504;53.766;9.626;2023-04-01T08:30:26;6.60;99.90
12872;DHT22;6504;53.766;9.626;2023-04-01T08:32:58;6.50;99.90
12872;DHT22;6504;53.766;9.626;2023-04-01T08:35:31;6.50;99.90
12872;DHT22;6504;53.766;9.626;2023-04-01T08:38:10;6.50;99.90
12872;DHT22;6504;53.766;9.626;2023-04-01T08:40:57;6.50;99.90
12872;DHT22;6504;53.766;9.626;2023-04-01T08:47:02;6.50;99.90
12872;DHT22;6504;53.766;9.626;2023-04-01T08:49:48;6.40;99.90
12872;DHT22;6504;53.766;9.626;2023-04-01T08:55:25;6.50;99.90
12872;DHT22;6504;53.766;9.626;2023-04-01T08:58:11;6.50;99.90
12872;DHT22;6504;53.766;9.626;2023-04-01T09:00:49;6.50;99.90
12872;DHT22;6504;53.766;9.626;2023-04-01T09:06:29;6.50;99.90
12872;DHT22;6504;53.766;9.626;2023-04-01T09:09:29;6.50;99.90
12872;DHT22;6504;53.766;9.626;2023-04-01T09:18:12;6.50;99.90
12872;DHT22;6504;53.766;9.626;2023-04-01T09:20:52;6.50;99.90
12872;DHT22;6504;53.766;9.626;2023-04-01T09:23:48;6.60;99.90
12872;DHT22;6504;53.766;9.626;2023-04-01T09:27:01;6.50;99.90
12872;DHT22;6504;53.766;9.626;2023-04-01T09:29:59;6.60;99.90
12872;DHT22;6504;53.766;9.626;2023-04-01T09:35:43;6.50;99.90
12872;DHT22;6504;53.766;9.626;2023-04-01T09:38:21;6.60;99.90
12872;DHT22;6504;53.766;9.626;2023-04-01T09:40:56;6.60;99.90
12872;DHT22;6504;53.766;9.626;2023-04-01T09:43:27;6.60;99.90
12872;DHT22;6504;53.766;9.626;2023-04-01T09:46:09;6.60;99.90
12872;DHT22;6504;53.766;9.626;2023-04-01T09:48:53;6.60;99.90
12872;DHT22;6504;53.766;9.626;2023-04-01T09:51:33;6.60;99.90
12872;DHT22;6504;53.766;9.626;2023-04-01T09:54:17;6.60;99.90
12872;DHT22;6504;53.766;9.626;2023-04-01T09:57:15;6.60;99.90
12872;DHT22;6504;53.766;9.626;2023-04-01T10:00:13;6.50;99.90
12872;DHT22;6504;53.766;9.626;2023-04-01T10:03:15;6.50;99.90
12872;DHT22;6504;53.766;9.626;2023-04-01T10:09:24;6.50;99.90
12872;DHT22;6504;53.766;9.626;2023-04-01T10:15:45;6.50;99.90
12872;DHT22;6504;53.766;9.626;2023-04-01T10:18:51;6.50;99.90
12872;DHT22;6504;53.766;9.626;2023-04-01T10:21:56;6.50;99.90
12872;DHT22;6504;53.766;9.626;2023-04-01T10:25:01;6.50;99.90
12872;DHT22;6504;53.766;9.626;2023-04-01T10:27:55;6.50;99.90
12872;DHT22;6504;53.766;9.626;2023-04-01T10:30:52;6.50;99.90
12872;DHT22;6504;53.766;9.626;2023-04-01T10:34:05;6.50;99.90
12872;DHT22;6504;53.766;9.626;2023-04-01T10:36:47;6.50;99.90
12872;DHT22;6504;53.766;9.626;2023-04-01T10:39:38;6.50;99.90
12872;DHT22;6504;53.766;9.626;2023-04-01T10:42:41;6.50;99.90
12872;DHT22;6504;53.766;9.626;2023-04-01T10:48:58;6.60;99.90
12872;DHT22;6504;53.766;9.626;2023-04-01T10:51:43;6.50;99.90
12872;DHT22;6504;53.766;9.626;2023-04-01T10:54:28;6.50;99.90
12872;DHT22;6504;53.766;9.626;2023-04-01T10:57:15;6.50;99.90
12872;DHT22;6504;53.766;9.626;2023-04-01T11:00:23;6.50;99.90
12872;DHT22;6504;53.766;9.626;2023-04-01T11:06:37;6.50;99.90
12872;DHT22;6504;53.766;9.626;2023-04-01T11:15:47;6.40;99.90
12872;DHT22;6504;53.766;9.626;2023-04-01T11:18:56;6.40;99.90
12872;DHT22;6504;53.766;9.626;2023-04-01T11:21:46;6.40;99.90
12872;DHT22;6504;53.766;9.626;2023-04-01T11:27:30;6.30;99.90
12872;DHT22;6504;53.766;9.626;2023-04-01T11:30:19;6.30;99.90
12872;DHT22;6504;53.766;9.626;2023-04-01T11:32:57;6.20;99.90
12872;DHT22;6504;53.766;9.626;2023-04-01T11:35:59;6.20;99.90
12872;DHT22;6504;53.766;9.626;2023-04-01T11:38:52;6.10;99.90
12872;DHT22;6504;53.766;9.626;2023-04-01T11:41:30;6.10;99.90
12872;DHT22;6504;53.766;9.626;2023-04-01T11:44:12;6.10;99.90
12872;DHT22;6504;53.766;9.626;2023-04-01T11:46:52;6.10;99.90
12872;DHT22;6504;53.766;9.626;2023-04-01T11:49:42;6.00;99.90
12872;DHT22;6504;53.766;9.626;2023-04-01T11:52:22;6.00;99.90
12872;DHT22;6504;53.766;9.626;2023-04-01T11:55:06;5.90;99.90
12872;DHT22;6504;53.766;9.626;2023-04-01T11:58:01;6.00;99.90
12872;DHT22;6504;53.766;9.626;2023-04-01T12:00:53;6.00;99.90
12872;DHT22;6504;53.766;9.626;2023-04-01T12:06:25;6.00;99.90
12872;DHT22;6504;53.766;9.626;2023-04-01T12:09:04;6.00;99.90
12872;DHT22;6504;53.766;9.626;2023-04-01T12:11:44;6.00;99.90
12872;DHT22;6504;53.766;9.626;2023-04-01T12:14:19;6.00;99.90
12872;DHT22;6504;53.766;9.626;2023-04-01T12:16:58;6.00;99.90
12872;DHT22;6504;53.766;9.626;2023-04-01T12:19:39;5.90;99.90
12872;DHT22;6504;53.766;9.626;2023-04-01T12:22:28;6.00;99.90
12872;DHT22;6504;53.766;9.626;2023-04-01T12:25:07;5.90;99.90
12872;DHT22;6504;53.766;9.626;2023-04-01T12:27:45;5.90;99.90
12872;DHT22;6504;53.766;9.626;2023-04-01T12:30:39;5.90;99.90
12872;DHT22;6504;53.766;9.626;2023-04-01T12:33:26;5.80;99.90
12872;DHT22;6504;53.766;9.626;2023-04-01T12:36:05;5.90;99.90
12872;DHT22;6504;53.766;9.626;2023-04-01T12:38:44;5.90;99.90
12872;DHT22;6504;53.766;9.626;2023-04-01T12:41:24;5.90;99.90
12872;DHT22;6504;53.766;9.626;2023-04-01T12:47:30;5.80;99.90
12872;DHT22;6504;53.766;9.626;2023-04-01T12:50:19;5.80;99.90
12872;DHT22;6504;53.766;9.626;2023-04-01T12:53:10;5.80;99.90
12872;DHT22;6504;53.766;9.626;2023-04-01T12:55:43;5.80;99.90
12872;DHT22;6504;53.766;9.626;2023-04-01T12:58:40;5.70;99.90
12872;DHT22;6504;53.766;9.626;2023-04-01T13:01:30;5.70;99.90
12872;DHT22;6504;53.766;9.626;2023-04-01T13:07:30;5.60;99.90
12872;DHT22;6504;53.766;9.626;2023-04-01T13:10:13;5.60;99.90
12872;DHT22;6504;53.766;9.626;2023-04-01T13:12:59;5.60;99.90
12872;DHT22;6504;53.766;9.626;2023-04-01T13:15:35;5.60;99.90
12872;DHT22;6504;53.766;9.626;2023-04-01T13:18:14;5.60;99.90
12872;DHT22;6504;53.766;9.626;2023-04-01T13:20:53;5.60;99.90
12872;DHT22;6504;53.766;9.626;2023-04-01T13:23:34;5.60;99.90
12872;DHT22;6504;53.766;9.626;2023-04-01T13:26:13;5.60;99.90
12872;DHT22;6504;53.766;9.626;2023-04-01T13:28:50;5.60;99.90
12872;DHT22;6504;53.766;9.626;2023-04-01T13:31:29;5.60;99.90
12872;DHT22;6504;53.766;9.626;2023-04-01T13:34:13;5.60;99.90
12872;DHT22;6504;53.766;9.626;2023-04-01T13:36:52;5.60;99.90
12872;DHT22;6504;53.766;9.626;2023-04-01T13:39:32;5.60;99.90
12872;DHT22;6504;53.766;9.626;2023-04-01T13:42:14;5.60;99.90
12872;DHT22;6504;53.766;9.626;2023-04-01T13:44:49;5.70;99.90
12872;DHT22;6504;53.766;9.626;2023-04-01T13:50:26;5.70;99.90
12872;DHT22;6504;53.766;9.626;2023-04-01T13:53:26;5.70;99.90
12872;DHT22;6504;53.766;9.626;2023-04-01T13:56:16;5.70;99.90
12872;DHT22;6504;53.766;9.626;2023-04-01T13:59:04;5.70;99.90
12872;DHT22;6504;53.766;9.626;2023-04-01T14:01:41;5.70;99.90
12872;DHT22;6504;53.766;9.626;2023-04-01T14:04:30;5.70;99.90
12872;DHT22;6504;53.766;9.626;2023-04-01T14:07:18;5.70;99.90
12872;DHT22;6504;53.766;9.626;2023-04-01T14:10:06;5.70;99.90
12872;DHT22;6504;53.766;9.626;2023-04-01T14:12:40;5.60;99.90
12872;DHT22;6504;53.766;9.626;2023-04-01T14:15:40;5.60;99.90
12872;DHT22;6504;53.766;9.626;2023-04-01T14:18:29;5.60;99.90
12872;DHT22;6504;53.766;9.626;2023-04-01T14:21:11;5.50;99.90
12872;DHT22;6504;53.766;9.626;2023-04-01T14:23:59;5.50;99.90
12872;DHT22;6504;53.766;9.626;2023-04-01T14:29:53;5.50;99.90
12872;DHT22;6504;53.766;9.626;2023-04-01T14:32:34;5.50;99.90
12872;DHT22;6504;53.766;9.626;2023-04-01T14:35:25;5.50;99.90
12872;DHT22;6504;53.766;9.626;2023-04-01T14:38:26;5.40;99.90
12872;DHT22;6504;53.766;9.626;2023-04-01T14:41:00;5.40;99.90
12872;DHT22;6504;53.766;9.626;2023-04-01T14:46:51;5.40;99.90
12872;DHT22;6504;53.766;9.626;2023-04-01T14:49:32;5.30;99.90
12872;DHT22;6504;53.766;9.626;2023-04-01T14:52:11;5.30;99.90
12872;DHT22;6504;53.766;9.626;2023-04-01T14:54:42;5.30;99.90
12872;DHT22;6504;53.766;9.626;2023-04-01T14:57:13;5.30;99.90
12872;DHT22;6504;53.766;9.626;2023-04-01T14:59:47;5.20;99.90
12872;DHT22;6504;53.766;9.626;2023-04-01T15:02:33;5.20;99.90
12872;DHT22;6504;53.766;9.626;2023-04-01T15:05:15;5.20;99.90
12872;DHT22;6504;53.766;9.626;2023-04-01T15:08:00;5.20;99.90
12872;DHT22;6504;53.766;9.626;2023-04-01T15:10:41;5.20;99.90
12872;DHT22;6504;53.766;9.626;2023-04-01T15:13:13;5.20;99.90
12872;DHT22;6504;53.766;9.626;2023-04-01T15:15:57;5.20;99.90
12872;DHT22;6504;53.766;9.626;2023-04-01T15:18:33;5.20;99.90
12872;DHT22;6504;53.766;9.626;2023-04-01T15:24:03;5.20;99.90
12872;DHT22;6504;53.766;9.626;2023-04-01T15:26:50;5.10;99.90
12872;DHT22;6504;53.766;9.626;2023-04-01T15:29:43;5.10;99.90
12872;DHT22;6504;53.766;9.626;2023-04-01T15:32:18;5.10;99.90
12872;DHT22;6504;53.766;9.626;2023-04-01T15:34:53;5.10;99.90
12872;DHT22;6504;53.766;9.626;2023-04-01T15:37:33;5.20;99.90
12872;DHT22;6504;53.766;9.626;2023-04-01T15:40:14;5.20;99.90
12872;DHT22;6504;53.766;9.626;2023-04-01T15:43:06;5.20;99.90
12872;DHT22;6504;53.766;9.626;2023-04-01T15:45:42;5.10;99.90
12872;DHT22;6504;53.766;9.626;2023-04-01T15:48:24;5.10;99.90
12872;DHT22;6504;53.766;9.626;2023-04-01T15:51:02;5.10;99.90
12872;DHT22;6504;53.766;9.626;2023-04-01T15:53:44;5.00;99.90
12872;DHT22;6504;53.766;9.626;2023-04-01T15:56:28;5.00;99.90
12872;DHT22;6504;53.766;9.626;2023-04-01T15:59:05;5.00;99.90
12872;DHT22;6504;53.766;9.626;2023-04-01T16:01:42;5.00;99.90
12872;DHT22;6504;53.766;9.626;2023-04-01T16:04:24;5.00;99.90
12872;DHT22;6504;53.766;9.626;2023-04-01T16:07:08;5.00;99.90
12872;DHT22;6504;53.766;9.626;2023-04-01T16:09:53;5.00;99.90
12872;DHT22;6504;53.766;9.626;2023-04-01T16:12:36;4.90;99.90
12872;DHT22;6504;53.766;9.626;2023-04-01T16:15:16;4.90;99.90
12872;DHT22;6504;53.766;9.626;2023-04-01T16:18:09;4.90;99.90
12872;DHT22;6504;53.766;9.626;2023-04-01T16:20:46;4.90;99.90
12872;DHT22;6504;53.766;9.626;2023-04-01T16:23:24;4.80;99.90
12872;DHT22;6504;53.766;9.626;2023-04-01T16:26:03;4.80;99.90
12872;DHT22;6504;53.766;9.626;2023-04-01T16:28:38;4.80;99.90
12872;DHT22;6504;53.766;9.626;2023-04-01T16:31:10;4.80;99.90
12872;DHT22;6504;53.766;9.626;2023-04-01T16:33:46;4.80;99.90
12872;DHT22;6504;53.766;9.626;2023-04-01T16:36:24;4.80;99.90
12872;DHT22;6504;53.766;9.626;2023-04-01T16:39:08;4.80;99.90
12872;DHT22;6504;53.766;9.626;2023-04-01T16:41:46;4.80;99.90
12872;DHT22;6504;53.766;9.626;2023-04-01T16:44:20;4.70;99.90
12872;DHT22;6504;53.766;9.626;2023-04-01T16:46:51;4.70;99.90
12872;DHT22;6504;53.766;9.626;2023-04-01T16:49:30;4.70;99.90
12872;DHT22;6504;53.766;9.626;2023-04-01T16:52:13;4.70;99.90
12872;DHT22;6504;53.766;9.626;2023-04-01T16:54:46;4.70;99.90
12872;DHT22;6504;53.766;9.626;2023-04-01T16:57:19;4.70;99.90
12872;DHT22;6504;53.766;9.626;2023-04-01T16:59:58;4.70;99.90
12872;DHT22;6504;53.766;9.626;2023-04-01T17:02:33;4.70;99.90
12872;DHT22;6504;53.766;9.626;2023-04-01T17:05:04;4.60;99.90
12872;DHT22;6504;53.766;9.626;2023-04-01T17:07:41;4.60;99.90
12872;DHT22;6504;53.766;9.626;2023-04-01T17:10:33;4.60;99.90
12872;DHT22;6504;53.766;9.626;2023-04-01T17:13:33;4.60;99.90
12872;DHT22;6504;53.766;9.626;2023-04-01T17:16:21;4.70;99.90
12872;DHT22;6504;53.766;9.626;2023-04-01T17:18:59;4.70;99.90
12872;DHT22;6504;53.766;9.626;2023-04-01T17:21:41;4.70;99.90
12872;DHT22;6504;53.766;9.626;2023-04-01T17:24:26;4.60;99.90
12872;DHT22;6504;53.766;9.626;2023-04-01T17:27:02;4.70;99.90
12872;DHT22;6504;53.766;9.626;2023-04-01T17:29:45;4.60;99.90
12872;DHT22;6504;53.766;9.626;2023-04-01T17:32:34;4.50;99.90
12872;DHT22;6504;53.766;9.626;2023-04-01T17:35:08;4.50;99.90
12872;DHT22;6504;53.766;9.626;2023-04-01T17:37:48;4.50;99.90
12872;DHT22;6504;53.766;9.626;2023-04-01T17:40:30;4.50;99.90
12872;DHT22;6504;53.766;9.626;2023-04-01T17:43:08;4.40;99.90
12872;DHT22;6504;53.766;9.626;2023-04-01T17:45:45;4.40;99.90
12872;DHT22;6504;53.766;9.626;2023-04-01T17:48:26;4.40;99.90
12872;DHT22;6504;53.766;9.626;2023-04-01T17:51:13;4.40;99.90
12872;DHT22;6504;53.766;9.626;2023-04-01T17:53:47;4.40;99.90
12872;DHT22;6504;53.766;9.626;2023-04-01T17:56:30;4.40;99.90
12872;DHT22;6504;53.766;9.626;2023-04-01T17:59:10;4.40;99.90
12872;DHT22;6504;53.766;9.626;2023-04-01T18:01:48;4.40;99.90
12872;DHT22;6504;53.766;9.626;2023-04-01T18:04:53;4.30;99.90
12872;DHT22;6504;53.766;9.626;2023-04-01T18:07:39;4.40;99.90
12872;DHT22;6504;53.766;9.626;2023-04-01T18:10:20;4.30;99.90
12872;DHT22;6504;53.766;9.626;2023-04-01T18:13:19;4.30;99.90
12872;DHT22;6504;53.766;9.626;2023-04-01T18:16:02;4.30;99.90
12872;DHT22;6504;53.766;9.626;2023-04-01T18:18:46;4.30;99.90